createdAt,value
2018-04-11T00:00:35.571Z,9.99
2018-04-11T00:01:35.815Z,9.97
2018-04-11T00:02:35.559Z,9.95
2018-04-11T00:03:35.560Z,9.89
2018-04-11T00:04:35.820Z,9.83
2018-04-11T00:05:35.796Z,9.87
2018-04-11T00:06:35.817Z,9.92
2018-04-11T00:07:35.545Z,9.92
2018-04-11T00:08:35.828Z,9.92
2018-04-11T00:09:35.794Z,9.91
2018-04-11T00:10:35.550Z,9.91
2018-04-11T00:11:35.531Z,9.86
2018-04-11T00:12:35.779Z,9.86
2018-04-11T00:13:35.772Z,9.92
2018-04-11T00:14:35.771Z,9.84
2018-04-11T00:15:35.760Z,9.92
2018-04-11T00:16:35.510Z,9.91
2018-04-11T00:17:35.760Z,9.89
2018-04-11T00:18:35.528Z,9.92
2018-04-11T00:19:35.745Z,10.02
2018-04-11T00:20:35.767Z,9.98
2018-04-11T00:21:35.770Z,10.1
2018-04-11T00:22:35.314Z,10.04
2018-04-11T00:23:35.731Z,10.09
2018-04-11T00:24:35.528Z,10.02
2018-04-11T00:25:35.471Z,10.02
2018-04-11T00:26:35.481Z,9.92
2018-04-11T00:27:35.476Z,9.94
2018-04-11T00:28:35.718Z,9.91
2018-04-11T00:29:35.475Z,9.86
2018-04-11T00:30:35.470Z,9.8
2018-04-11T00:31:35.751Z,9.76
2018-04-11T00:32:35.757Z,9.77
2018-04-11T00:33:35.916Z,9.68
2018-04-11T00:34:35.490Z,9.55
2018-04-11T00:35:35.680Z,9.54
2018-04-11T00:36:35.438Z,9.62
2018-04-11T00:37:35.425Z,9.55
2018-04-11T00:38:35.417Z,9.51
2018-04-11T00:39:35.430Z,9.54
2018-04-11T00:40:35.415Z,9.48
2018-04-11T00:41:35.667Z,9.58
2018-04-11T00:42:35.149Z,9.51
2018-04-11T00:43:35.409Z,9.55
2018-04-11T00:44:35.654Z,9.51
2018-04-11T00:45:35.394Z,9.48
2018-04-11T00:46:35.386Z,9.44
2018-04-11T00:47:35.395Z,9.48
2018-04-11T00:48:40.903Z,9.55
2018-04-11T00:49:35.376Z,9.44
2018-04-11T00:50:35.620Z,9.58
2018-04-11T00:51:35.641Z,9.47
2018-04-11T00:52:35.623Z,9.48
2018-04-11T00:53:35.373Z,9.47
2018-04-11T00:54:35.374Z,9.48
2018-04-11T00:55:35.406Z,9.58
2018-04-11T00:56:35.600Z,9.56
2018-04-11T00:57:35.587Z,9.58
2018-04-11T00:58:35.348Z,9.55
2018-04-11T00:59:35.341Z,9.51
2018-04-11T01:00:35.580Z,9.51
2018-04-11T01:01:35.573Z,9.55
2018-04-11T01:02:35.588Z,9.55
2018-04-11T01:03:35.300Z,9.58
2018-04-11T01:04:35.648Z,9.62
2018-04-11T01:05:35.308Z,9.55
2018-04-11T01:06:35.305Z,9.55
2018-04-11T01:07:35.310Z,9.61
2018-04-11T01:08:35.537Z,9.56
2018-04-11T01:09:35.546Z,9.55
2018-04-11T01:10:35.275Z,9.59
2018-04-11T01:11:35.270Z,9.54
2018-04-11T01:12:35.017Z,9.59
2018-04-11T01:13:35.264Z,9.54
2018-04-11T01:14:35.517Z,9.55
2018-04-11T01:15:35.249Z,9.58
2018-04-11T01:16:35.244Z,9.62
2018-04-11T01:17:34.999Z,9.62
2018-04-11T01:18:35.496Z,9.54
2018-04-11T01:19:35.241Z,9.66
2018-04-11T01:20:35.539Z,9.62
2018-04-11T01:21:35.236Z,9.61
2018-04-11T01:22:35.485Z,9.61
2018-04-11T01:23:35.482Z,9.66
2018-04-11T01:24:35.473Z,9.64
2018-04-11T01:25:35.474Z,9.62
2018-04-11T01:26:35.469Z,9.66
2018-04-11T01:27:35.199Z,9.65
2018-04-11T01:28:35.201Z,9.68
2018-04-11T01:29:35.462Z,9.74
2018-04-11T01:30:35.459Z,9.69
2018-04-11T01:31:35.464Z,9.65
2018-04-11T01:32:35.189Z,9.5
2018-04-11T01:33:35.180Z,9.59
2018-04-11T01:34:35.178Z,9.55
2018-04-11T01:35:35.184Z,9.5
2018-04-11T01:36:35.422Z,9.59
2018-04-11T01:37:34.903Z,9.54
2018-04-11T01:38:35.157Z,9.55
2018-04-11T01:39:35.141Z,9.64
2018-04-11T01:40:35.403Z,9.61
2018-04-11T01:41:35.422Z,9.54
2018-04-11T01:42:35.386Z,9.64
2018-04-11T01:43:35.133Z,9.61
2018-04-11T01:44:35.389Z,9.62
2018-04-11T01:45:35.389Z,9.55
2018-04-11T01:46:35.370Z,9.61
2018-04-11T01:47:35.384Z,9.65
2018-04-11T01:48:35.371Z,9.55
2018-04-11T01:49:38.794Z,9.58
2018-04-11T01:50:35.359Z,9.55
2018-04-11T01:51:35.355Z,9.56
2018-04-11T01:52:35.356Z,9.56
2018-04-11T01:53:35.083Z,9.58
2018-04-11T01:54:35.075Z,9.55
2018-04-11T01:55:35.324Z,9.55
2018-04-11T01:56:34.837Z,9.56
2018-04-11T01:57:35.307Z,9.54
2018-04-11T01:58:35.305Z,9.51
2018-04-11T01:59:35.307Z,9.51
2018-04-11T02:00:35.305Z,9.64
2018-04-11T02:01:35.053Z,9.65
2018-04-11T02:02:34.788Z,9.65
2018-04-11T02:03:35.312Z,9.61
2018-04-11T02:04:37.183Z,9.65
2018-04-11T02:05:35.026Z,9.69
2018-04-11T02:06:35.274Z,9.68
2018-04-11T02:07:35.021Z,9.73
2018-04-11T02:08:35.043Z,9.65
2018-04-11T02:09:35.259Z,9.64
2018-04-11T02:10:35.258Z,9.62
2018-04-11T02:11:34.750Z,9.65
2018-04-11T02:12:35.006Z,9.55
2018-04-11T02:13:34.994Z,9.54
2018-04-11T02:14:34.978Z,9.51
2018-04-11T02:15:34.975Z,9.47
2018-04-11T02:16:34.980Z,9.4
2018-04-11T02:17:35.215Z,9.44
2018-04-11T02:18:34.966Z,9.31
2018-04-11T02:19:35.221Z,9.25
2018-04-11T02:20:34.957Z,9.19
2018-04-11T02:21:34.953Z,9.19
2018-04-11T02:22:35.199Z,9.21
2018-04-11T02:23:35.202Z,9.21
2018-04-11T02:24:34.940Z,9.16
2018-04-11T02:25:34.925Z,9.16
2018-04-11T02:26:34.921Z,9.16
2018-04-11T02:27:35.169Z,9.29
2018-04-11T02:28:35.154Z,9.4
2018-04-11T02:29:34.918Z,9.4
2018-04-11T02:30:35.151Z,9.28
2018-04-11T02:31:35.150Z,9.37
2018-04-11T02:32:35.156Z,9.29
2018-04-11T02:33:35.140Z,9.26
2018-04-11T02:34:34.630Z,9.28
2018-04-11T02:35:35.134Z,9.29
2018-04-11T02:36:35.143Z,9.37
2018-04-11T02:37:35.122Z,9.28
2018-04-11T02:38:35.119Z,9.23
2018-04-11T02:39:35.100Z,9.19
2018-04-11T02:40:35.105Z,9.26
2018-04-11T02:41:35.115Z,9.25
2018-04-11T02:42:34.844Z,9.04
2018-04-11T02:43:35.100Z,8.99
2018-04-11T02:44:35.096Z,9
2018-04-11T02:45:35.086Z,8.94
2018-04-11T02:46:34.820Z,8.88
2018-04-11T02:47:34.585Z,8.89
2018-04-11T02:48:34.814Z,8.88
2018-04-11T02:49:35.066Z,8.89
2018-04-11T02:50:35.352Z,8.88
2018-04-11T02:51:35.051Z,8.74
2018-04-11T02:52:35.039Z,8.84
2018-04-11T02:53:35.069Z,8.73
2018-04-11T02:54:34.547Z,8.67
2018-04-11T02:55:35.035Z,8.74
2018-04-11T02:56:34.806Z,8.71
2018-04-11T02:57:35.037Z,8.74
2018-04-11T02:58:35.013Z,8.74
2018-04-11T02:59:35.036Z,8.76
2018-04-11T03:00:35.012Z,8.78
2018-04-11T03:01:34.765Z,8.69
2018-04-11T03:02:34.495Z,8.67
2018-04-11T03:03:35.005Z,8.55
2018-04-11T03:04:34.985Z,8.63
2018-04-11T03:05:34.977Z,8.49
2018-04-11T03:06:34.971Z,8.53
2018-04-11T03:07:34.505Z,8.53
2018-04-11T03:08:34.965Z,8.48
2018-04-11T03:09:34.455Z,8.52
2018-04-11T03:10:34.961Z,8.42
2018-04-11T03:11:34.951Z,8.44
2018-04-11T03:12:34.939Z,8.41
2018-04-11T03:13:34.936Z,8.42
2018-04-11T03:14:34.929Z,8.36
2018-04-11T03:15:34.679Z,8.44
2018-04-11T03:16:34.929Z,8.26
2018-04-11T03:17:34.664Z,8.34
2018-04-11T03:18:34.659Z,8.31
2018-04-11T03:19:34.903Z,8.41
2018-04-11T03:20:38.408Z,8.37
2018-04-11T03:21:34.890Z,8.41
2018-04-11T03:22:34.884Z,8.41
2018-04-11T03:23:34.650Z,8.33
2018-04-11T03:24:34.884Z,8.31
2018-04-11T03:25:34.628Z,8.26
2018-04-11T03:26:34.616Z,8.28
2018-04-11T03:27:34.864Z,8.23
2018-04-11T03:28:34.600Z,8.19
2018-04-11T03:29:34.846Z,8.19
2018-04-11T03:37:55.192Z,8.05
2018-04-11T03:38:55.185Z,8.19
2018-04-11T03:39:55.190Z,8.15
2018-04-11T03:40:54.921Z,8.13
2018-04-11T03:41:55.155Z,8.13
2018-04-11T03:42:54.903Z,8.05
2018-04-11T03:43:55.140Z,8.2
2018-04-11T03:44:55.144Z,8.13
2018-04-11T03:45:55.127Z,8.16
2018-04-11T03:46:55.118Z,8.13
2018-04-11T03:47:54.624Z,8.05
2018-04-11T03:48:54.730Z,8.01
2018-04-11T03:49:55.103Z,8.05
2018-04-11T03:50:54.853Z,8.13
2018-04-11T03:51:55.091Z,8.06
2018-04-11T03:52:58.344Z,8.03
2018-04-11T03:53:54.832Z,7.98
2018-04-11T03:54:55.098Z,7.94
2018-04-11T03:55:55.059Z,7.97
2018-04-11T03:56:55.062Z,8.09
2018-04-11T03:57:54.555Z,8
2018-04-11T03:58:54.553Z,7.95
2018-04-11T03:59:55.057Z,8.01
2018-04-11T04:00:55.033Z,7.95
2018-04-11T04:01:55.033Z,7.93
2018-04-11T04:02:54.782Z,7.87
2018-04-11T04:03:55.036Z,7.93
2018-04-11T04:04:55.028Z,7.98
2018-04-11T04:05:55.006Z,7.9
2018-04-11T04:06:54.748Z,7.9
2018-04-11T04:07:56.059Z,7.91
2018-04-11T04:08:55.002Z,7.88
2018-04-11T04:09:55.003Z,7.93
2018-04-11T04:10:54.973Z,7.93
2018-04-11T04:11:54.726Z,7.93
2018-04-11T04:12:54.969Z,7.93
2018-04-11T04:13:55.092Z,8
2018-04-11T04:14:54.720Z,7.98
2018-04-11T04:15:54.953Z,7.98
2018-04-11T04:16:54.707Z,7.88
2018-04-11T04:17:54.950Z,7.94
2018-04-11T04:18:54.937Z,7.98
2018-04-11T04:19:55.037Z,7.95
2018-04-11T04:20:54.668Z,8
2018-04-11T04:21:54.915Z,7.95
2018-04-11T04:22:54.410Z,7.95
2018-04-11T04:23:54.671Z,7.94
2018-04-11T04:24:54.900Z,7.95
2018-04-11T04:25:54.891Z,7.9
2018-04-11T04:26:54.643Z,7.93
2018-04-11T04:27:54.630Z,7.94
2018-04-11T04:28:54.886Z,7.97
2018-04-11T04:29:54.385Z,7.97
2018-04-11T04:30:54.612Z,7.93
2018-04-11T04:31:54.606Z,7.95
2018-04-11T04:32:54.868Z,7.98
2018-04-11T04:33:54.365Z,8.05
2018-04-11T04:34:54.852Z,7.98
2018-04-11T04:35:54.840Z,7.97
2018-04-11T04:36:54.841Z,8.05
2018-04-11T04:37:54.829Z,7.95
2018-04-11T04:38:54.813Z,7.95
2018-04-11T04:39:54.888Z,8.08
2018-04-11T04:40:54.873Z,8.05
2018-04-11T04:41:54.798Z,8
2018-04-11T04:42:54.800Z,8.01
2018-04-11T04:43:54.790Z,8.05
2018-04-11T04:44:54.528Z,8.03
2018-04-11T04:45:54.788Z,8.05
2018-04-11T04:46:54.524Z,8.13
2018-04-11T04:47:54.795Z,8.05
2018-04-11T04:48:54.502Z,8.16
2018-04-11T04:49:54.501Z,8.18
2018-04-11T04:50:54.492Z,8.3
2018-04-11T04:51:54.739Z,8.24
2018-04-11T04:52:54.751Z,8.15
2018-04-11T04:53:56.826Z,8.31
2018-04-11T04:54:54.472Z,8.28
2018-04-11T04:55:54.471Z,8.41
2018-04-11T04:56:54.716Z,8.3
2018-04-11T04:57:54.698Z,8.24
2018-04-11T04:58:54.463Z,8.16
2018-04-11T04:59:54.690Z,8.16
2018-04-11T05:00:54.695Z,8.08
2018-04-11T05:01:54.686Z,8.05
2018-04-11T05:02:54.687Z,8.05
2018-04-11T05:03:54.667Z,8.06
2018-04-11T05:04:54.669Z,8.09
2018-04-11T05:05:54.673Z,7.98
2018-04-11T05:06:54.654Z,8.15
2018-04-11T05:07:54.645Z,8.13
2018-04-11T05:08:54.638Z,8.24
2018-04-11T05:09:54.639Z,8.34
2018-04-11T05:10:54.145Z,8.41
2018-04-11T05:11:54.698Z,8.38
2018-04-11T05:12:54.619Z,8.51
2018-04-11T05:13:54.132Z,8.48
2018-04-11T05:14:54.609Z,8.55
2018-04-11T05:15:54.606Z,8.67
2018-04-11T05:16:54.109Z,8.69
2018-04-11T05:17:54.354Z,8.74
2018-04-11T05:18:54.607Z,8.89
2018-04-11T05:19:54.610Z,9.14
2018-04-11T05:20:54.599Z,9.28
2018-04-11T05:21:54.625Z,9.51
2018-04-11T05:22:54.567Z,9.84
2018-04-11T05:23:55.617Z,10.1
2018-04-11T05:24:54.328Z,10.2
2018-04-11T05:25:54.552Z,10.46
2018-04-11T05:26:54.558Z,10.63
2018-04-11T05:27:54.549Z,10.74
2018-04-11T05:28:54.340Z,10.79
2018-04-11T05:29:54.306Z,11
2018-04-11T05:30:54.318Z,11.18
2018-04-11T05:31:54.527Z,11.3
2018-04-11T05:32:54.308Z,11.44
2018-04-11T05:33:54.536Z,11.78
2018-04-11T05:34:54.527Z,11.8
2018-04-11T05:35:54.542Z,12.04
2018-04-11T05:36:54.532Z,12.31
2018-04-11T05:37:54.302Z,12.45
2018-04-11T05:38:54.523Z,12.67
2018-04-11T05:39:54.537Z,12.85
2018-04-11T05:40:54.326Z,13.03
2018-04-11T05:41:54.531Z,13.2
2018-04-11T05:42:54.532Z,13.35
2018-04-11T05:43:54.593Z,13.27
2018-04-11T05:44:54.277Z,13.31
2018-04-11T05:45:54.270Z,13.38
2018-04-11T05:46:54.280Z,13.38
2018-04-11T05:47:54.521Z,13.47
2018-04-11T05:48:54.278Z,13.49
2018-04-11T05:49:54.500Z,13.37
2018-04-11T05:50:54.509Z,13.19
2018-04-11T05:51:54.502Z,13.08
2018-04-11T05:52:54.268Z,12.79
2018-04-11T05:53:54.499Z,12.68
2018-04-11T05:54:54.268Z,12.43
2018-04-11T05:55:54.502Z,12.21
2018-04-11T05:56:54.527Z,11.95
2018-04-11T05:57:54.003Z,11.8
2018-04-11T05:58:54.249Z,11.63
2018-04-11T05:59:54.487Z,11.4
2018-04-11T06:00:54.473Z,11.27
2018-04-11T06:01:54.253Z,11.07
2018-04-11T06:02:54.499Z,10.9
2018-04-11T06:03:54.502Z,10.94
2018-04-11T06:04:54.501Z,10.76
2018-04-11T06:05:54.036Z,10.76
2018-04-11T06:06:54.007Z,10.69
2018-04-11T06:07:54.241Z,10.54
2018-04-11T06:08:54.246Z,10.57
2018-04-11T06:09:56.369Z,10.56
2018-04-11T06:10:54.477Z,10.54
2018-04-11T06:11:54.244Z,10.44
2018-04-11T06:12:54.497Z,10.54
2018-04-11T06:22:12.581Z,10.99
2018-04-11T06:23:13.065Z,10.94
2018-04-11T06:24:13.061Z,11.05
2018-04-11T06:25:14.701Z,11.02
2018-04-11T06:26:12.803Z,11.17
2018-04-11T06:27:13.295Z,11.41
2018-04-11T06:28:13.151Z,11.8
2018-04-11T06:29:13.035Z,12.24
2018-04-11T06:30:14.322Z,12.64
2018-04-11T06:31:13.028Z,12.94
2018-04-11T06:32:13.035Z,13.42
2018-04-11T06:33:12.769Z,13.81
2018-04-11T06:34:13.021Z,14.43
2018-04-11T06:35:14.589Z,14.88
2018-04-11T06:36:13.046Z,15.33
2018-04-11T06:37:13.017Z,15.73
2018-04-11T06:38:13.023Z,16.08
2018-04-11T06:39:12.555Z,16.47
2018-04-11T06:40:14.523Z,16.78
2018-04-11T06:41:12.766Z,16.81
2018-04-11T06:42:13.074Z,17.04
2018-04-11T06:43:12.791Z,17.33
2018-04-11T06:44:12.788Z,17.49
2018-04-11T06:45:14.690Z,17.68
2018-04-11T06:46:13.169Z,17.74
2018-04-11T06:47:12.797Z,17.74
2018-04-11T06:48:12.782Z,17.94
2018-04-11T06:49:13.031Z,18.18
2018-04-11T06:50:14.559Z,18.41
2018-04-11T06:51:12.801Z,18.59
2018-04-11T06:52:13.037Z,18.81
2018-04-11T06:53:12.796Z,19.08
2018-04-11T06:54:12.797Z,19.16
2018-04-11T06:55:14.941Z,19.31
2018-04-11T06:56:12.811Z,19.59
2018-04-11T06:57:14.276Z,19.71
2018-04-11T06:58:12.833Z,19.64
2018-04-11T06:59:13.073Z,19.58
2018-04-11T07:00:15.129Z,19.55
2018-04-11T07:01:12.846Z,19.55
2018-04-11T07:02:13.097Z,19.59
2018-04-11T07:03:13.083Z,19.63
2018-04-11T07:04:13.086Z,19.73
2018-04-11T07:05:14.605Z,19.77
2018-04-11T07:06:13.097Z,19.94
2018-04-11T07:07:12.872Z,20
2018-04-11T07:08:13.112Z,20.11
2018-04-11T07:09:13.109Z,20.32
2018-04-11T07:10:14.404Z,20.25
2018-04-11T07:11:13.123Z,20.25
2018-04-11T07:12:13.430Z,20.13
2018-04-11T07:13:13.149Z,20.06
2018-04-11T07:14:13.244Z,20.1
2018-04-11T07:15:14.655Z,19.81
2018-04-11T07:16:13.153Z,19.45
2018-04-11T07:17:13.154Z,19.19
2018-04-11T07:18:13.159Z,18.83
2018-04-11T07:19:13.160Z,18.45
2018-04-11T07:20:14.570Z,18.34
2018-04-11T07:21:13.175Z,18.25
2018-04-11T07:22:12.933Z,18.05
2018-04-11T07:23:13.177Z,17.78
2018-04-11T07:24:12.933Z,17.6
2018-04-11T07:25:14.698Z,17.31
2018-04-11T07:26:13.201Z,17.02
2018-04-11T07:27:17.220Z,16.5
2018-04-11T07:28:13.222Z,16.2
2018-04-11T07:29:12.950Z,15.94
2018-04-11T07:30:15.022Z,16.29
2018-04-11T07:31:13.207Z,16.86
2018-04-11T07:32:13.224Z,17.52
2018-04-11T07:33:13.229Z,18.04
2018-04-11T07:34:12.983Z,18.71
2018-04-11T07:35:14.429Z,19.18
2018-04-11T07:36:13.227Z,19.66
2018-04-11T07:37:13.225Z,20.04
2018-04-11T07:38:12.980Z,20.4
2018-04-11T07:39:13.235Z,20.72
2018-04-11T07:40:14.655Z,20.93
2018-04-11T07:41:13.241Z,20.96
2018-04-11T07:42:13.249Z,20.85
2018-04-11T07:43:13.273Z,21
2018-04-11T07:44:13.007Z,21
2018-04-11T07:45:14.827Z,20.99
2018-04-11T07:46:13.185Z,21.17
2018-04-11T07:47:13.275Z,21.35
2018-04-11T07:48:13.297Z,21.24
2018-04-11T07:49:13.040Z,21.15
2018-04-11T07:50:14.417Z,20.78
2018-04-11T07:51:13.039Z,20.29
2018-04-11T07:52:13.299Z,19.64
2018-04-11T07:53:13.048Z,19.08
2018-04-11T07:54:13.303Z,18.44
2018-04-11T07:55:14.484Z,17.85
2018-04-11T07:56:13.311Z,17.36
2018-04-11T07:57:13.317Z,16.76
2018-04-11T07:58:13.073Z,16.46
2018-04-11T07:59:13.072Z,16.04
2018-04-11T08:00:14.923Z,15.79
2018-04-11T08:01:13.327Z,15.59
2018-04-11T08:02:13.332Z,15.54
2018-04-11T08:03:13.531Z,16.08
2018-04-11T08:04:13.337Z,16.69
2018-04-11T08:05:14.887Z,17.38
2018-04-11T08:06:13.095Z,18.16
2018-04-11T08:07:13.108Z,18.58
2018-04-11T08:08:13.094Z,19.11
2018-04-11T08:09:13.361Z,19.79
2018-04-11T08:10:14.065Z,20.24
2018-04-11T08:11:13.359Z,20.06
2018-04-11T08:12:13.360Z,19.99
2018-04-11T08:13:13.357Z,20.39
2018-04-11T08:14:13.374Z,20.82
2018-04-11T08:15:14.785Z,21.22
2018-04-11T08:16:13.382Z,21.52
2018-04-11T08:17:13.139Z,21.76
2018-04-11T08:18:13.167Z,22.06
2018-04-11T08:19:12.903Z,22.38
2018-04-11T08:20:14.972Z,22.63
2018-04-11T08:21:13.157Z,22.96
2018-04-11T08:22:13.156Z,23.37
2018-04-11T08:23:13.489Z,23.43
2018-04-11T08:24:13.414Z,22.78
2018-04-11T08:25:14.428Z,22.45
2018-04-11T08:26:13.422Z,22.22
2018-04-11T08:27:13.177Z,21.93
2018-04-11T08:28:13.187Z,21.5
2018-04-11T08:29:13.439Z,21.12
2018-04-11T08:30:14.950Z,20.88
2018-04-11T08:31:13.206Z,20.85
2018-04-11T08:32:13.455Z,20.82
2018-04-11T08:33:13.221Z,20.72
2018-04-11T08:34:13.222Z,20.48
2018-04-11T08:35:15.286Z,20.04
2018-04-11T08:36:12.977Z,19.51
2018-04-11T08:37:12.991Z,19.12
2018-04-11T08:38:13.481Z,18.6
2018-04-11T08:39:13.492Z,18.11
2018-04-11T08:40:15.180Z,17.6
2018-04-11T08:41:13.500Z,17.16
2018-04-11T08:42:13.509Z,16.97
2018-04-11T08:43:13.260Z,16.76
2018-04-11T08:44:13.727Z,16.74
2018-04-11T08:45:15.646Z,16.56
2018-04-11T08:46:13.520Z,16.43
2018-04-11T08:47:13.529Z,16.2
2018-04-11T08:48:13.027Z,16.12
2018-04-11T08:49:13.088Z,16.17
2018-04-11T08:50:15.217Z,16.16
2018-04-11T08:51:13.546Z,16.09
2018-04-11T08:52:13.299Z,16.08
2018-04-11T08:53:13.292Z,15.92
2018-04-11T08:54:13.302Z,15.77
2018-04-11T08:55:15.347Z,15.64
2018-04-11T08:56:13.567Z,15.64
2018-04-11T08:57:13.558Z,15.61
2018-04-11T08:58:13.307Z,15.64
2018-04-11T08:59:13.555Z,15.59
2018-04-11T09:00:15.343Z,15.67
2018-04-11T09:01:13.084Z,15.65
2018-04-11T09:02:13.316Z,15.61
2018-04-11T09:03:13.571Z,15.58
2018-04-11T09:04:13.082Z,15.51
2018-04-11T09:05:15.503Z,15.54
2018-04-11T09:06:13.591Z,15.52
2018-04-11T09:07:13.317Z,15.55
2018-04-11T09:08:13.583Z,15.58
2018-04-11T09:09:13.332Z,15.65
2018-04-11T09:10:14.220Z,15.72
2018-04-11T09:11:13.331Z,15.54
2018-04-11T09:12:13.340Z,15.42
2018-04-11T09:13:17.029Z,15.44
2018-04-11T09:14:13.094Z,15.42
2018-04-11T09:15:15.209Z,15.65
2018-04-11T09:16:13.626Z,15.7
2018-04-11T09:17:13.662Z,15.97
2018-04-11T09:18:13.593Z,16.09
2018-04-11T09:19:13.591Z,16.08
2018-04-11T09:20:14.813Z,16.2
2018-04-11T09:21:13.348Z,16.21
2018-04-11T09:22:13.583Z,16.28
2018-04-11T09:23:13.614Z,16.32
2018-04-11T09:24:13.598Z,16.42
2018-04-11T09:25:14.651Z,16.5
2018-04-11T09:26:13.383Z,16.71
2018-04-11T09:27:13.347Z,16.84
2018-04-11T09:28:14.138Z,16.83
2018-04-11T09:29:13.341Z,16.94
2018-04-11T09:30:15.065Z,16.99
2018-04-11T09:31:13.169Z,17.02
2018-04-11T09:32:13.596Z,17.02
2018-04-11T09:33:13.653Z,16.86
2018-04-11T09:34:13.596Z,16.83
2018-04-11T09:35:14.986Z,16.65
2018-04-11T09:36:13.353Z,16.61
2018-04-11T09:37:13.352Z,16.56
2018-04-11T09:38:13.664Z,16.39
2018-04-11T09:39:13.350Z,16.2
2018-04-11T09:40:15.372Z,16.31
2018-04-11T09:41:13.352Z,16.24
2018-04-11T09:42:13.430Z,16.24
2018-04-11T09:43:13.352Z,16.26
2018-04-11T09:44:13.600Z,16.26
2018-04-11T09:45:14.555Z,16.15
2018-04-11T09:46:13.387Z,16.05
2018-04-11T09:47:13.605Z,16.05
2018-04-11T09:48:13.618Z,16.1
2018-04-11T09:49:13.618Z,16.28
2018-04-11T09:50:15.129Z,16.24
2018-04-11T09:51:13.681Z,16.35
2018-04-11T09:52:13.617Z,16.29
2018-04-11T09:53:13.611Z,16.28
2018-04-11T09:54:13.619Z,16.42
2018-04-11T09:55:15.184Z,16.5
2018-04-11T09:56:13.366Z,16.68
2018-04-11T09:57:13.617Z,16.76
2018-04-11T09:58:13.945Z,16.83
2018-04-11T09:59:13.163Z,16.87
2018-04-11T10:00:15.086Z,16.79
2018-04-11T10:01:13.618Z,16.84
2018-04-11T10:02:13.622Z,16.79
2018-04-11T10:03:13.376Z,16.78
2018-04-11T10:04:13.379Z,16.75
2018-04-11T10:05:14.594Z,16.66
2018-04-11T10:06:13.642Z,16.54
2018-04-11T10:07:13.634Z,16.35
2018-04-11T10:08:13.383Z,16.39
2018-04-11T10:09:13.634Z,16.5
2018-04-11T10:10:14.597Z,16.46
2018-04-11T10:11:13.637Z,16.58
2018-04-11T10:12:13.633Z,16.72
2018-04-11T10:13:13.885Z,16.71
2018-04-11T10:14:13.386Z,16.68
2018-04-11T10:15:15.078Z,16.64
2018-04-11T10:16:13.641Z,16.54
2018-04-11T10:17:13.634Z,16.56
2018-04-11T10:18:13.638Z,16.74
2018-04-11T10:19:13.691Z,16.78
2018-04-11T10:20:15.296Z,16.87
2018-04-11T10:21:13.450Z,16.83
2018-04-11T10:22:13.642Z,16.81
2018-04-11T10:52:57.829Z,17.24
2018-04-11T10:53:57.815Z,17.15
2018-04-11T10:54:57.844Z,16.97
2018-04-11T10:55:57.356Z,16.89
2018-04-11T10:56:57.557Z,16.83
2018-04-11T10:57:57.292Z,16.83
2018-04-11T10:58:57.793Z,16.9
2018-04-11T10:59:57.791Z,17.09
2018-04-11T11:00:57.553Z,17.05
2018-04-11T11:01:57.281Z,16.99
2018-04-11T11:02:57.552Z,16.93
2018-04-11T11:03:57.784Z,16.83
2018-04-11T11:04:57.530Z,16.76
2018-04-11T11:05:57.533Z,16.84
2018-04-11T11:06:57.533Z,16.78
2018-04-11T11:07:58.034Z,16.86
2018-04-11T11:08:57.537Z,16.86
2018-04-11T11:09:57.794Z,16.81
2018-04-11T11:10:57.534Z,16.9
2018-04-11T11:11:57.827Z,17.01
2018-04-11T11:12:57.782Z,17.05
2018-04-11T11:13:57.788Z,17.04
2018-04-11T11:14:57.800Z,17.06
2018-04-11T11:15:57.787Z,17.04
2018-04-11T11:16:57.790Z,17.02
2018-04-11T11:17:57.796Z,16.96
2018-04-11T11:18:57.790Z,16.93
2018-04-11T11:19:57.789Z,16.9
2018-04-11T11:20:57.289Z,16.79
2018-04-11T11:21:57.537Z,16.86
2018-04-11T11:22:58.437Z,16.86
2018-04-11T11:23:57.786Z,16.93
2018-04-11T11:24:57.560Z,17.09
2018-04-11T11:25:57.799Z,17.09
2018-04-11T11:26:57.789Z,17.22
2018-04-11T11:27:57.573Z,17.2
2018-04-11T11:28:57.792Z,17.22
2018-04-11T11:29:57.575Z,17.3
2018-04-11T11:30:57.793Z,17.38
2018-04-11T11:31:57.790Z,17.34
2018-04-11T11:32:57.793Z,17.31
2018-04-11T11:33:57.806Z,17.38
2018-04-11T11:34:57.544Z,17.39
2018-04-11T11:35:57.801Z,17.38
2018-04-11T11:36:57.795Z,17.49
2018-04-11T11:37:59.087Z,17.46
2018-04-11T11:38:57.552Z,17.36
2018-04-11T11:39:57.546Z,17.42
2018-04-11T11:40:57.802Z,17.57
2018-04-11T11:41:57.826Z,17.6
2018-04-11T11:42:57.549Z,17.6
2018-04-11T11:43:57.555Z,17.64
2018-04-11T11:44:57.801Z,17.57
2018-04-11T11:45:57.847Z,17.56
2018-04-11T11:46:57.556Z,17.64
2018-04-11T11:47:57.842Z,17.64
2018-04-11T11:48:57.808Z,17.7
2018-04-11T11:49:57.807Z,17.72
2018-04-11T11:50:57.553Z,17.6
2018-04-11T11:51:57.802Z,17.57
2018-04-11T11:52:58.607Z,17.67
2018-04-11T11:53:57.811Z,17.63
2018-04-11T11:54:57.809Z,17.71
2018-04-11T11:55:57.583Z,17.67
2018-04-11T11:56:57.820Z,17.65
2018-04-11T11:57:57.817Z,17.71
2018-04-11T11:58:57.323Z,17.74
2018-04-11T11:59:57.812Z,17.65
2018-04-11T12:00:57.846Z,17.74
2018-04-11T12:01:57.579Z,17.76
2018-04-11T12:02:57.826Z,17.74
2018-04-11T12:03:57.330Z,17.82
2018-04-11T12:04:57.448Z,17.87
2018-04-11T12:05:57.589Z,18.03
2018-04-11T12:06:57.840Z,17.95
2018-04-11T12:07:57.822Z,17.9
2018-04-11T12:08:57.585Z,17.97
2018-04-11T12:09:57.840Z,18.08
2018-04-11T12:10:57.875Z,18.08
2018-04-11T12:11:58.060Z,18.16
2018-04-11T12:12:57.826Z,18.13
2018-04-11T12:13:57.587Z,18.01
2018-04-11T12:14:57.584Z,18.03
2018-04-11T12:15:57.336Z,18.04
2018-04-11T12:16:57.839Z,18.1
2018-04-11T12:17:57.839Z,18.11
2018-04-11T12:18:58.388Z,18.22
2018-04-11T12:19:57.590Z,18.26
2018-04-11T12:20:57.600Z,18.28
2018-04-11T12:21:57.843Z,18.26
2018-04-11T12:22:57.842Z,18.33
2018-04-11T12:23:57.842Z,18.33
2018-04-11T12:24:57.848Z,18.35
2018-04-11T12:25:57.598Z,18.43
2018-04-11T12:26:57.861Z,18.44
2018-04-11T12:27:57.872Z,18.49
2018-04-11T12:28:57.352Z,18.49
2018-04-11T12:29:57.602Z,18.44
2018-04-11T12:30:57.603Z,18.37
2018-04-11T12:31:57.853Z,18.26
2018-04-11T12:32:57.614Z,18.23
2018-04-11T12:33:57.607Z,18.23
2018-04-11T12:34:57.872Z,18.28
2018-04-11T12:35:57.860Z,18.31
2018-04-11T12:36:57.622Z,18.22
2018-04-11T12:37:57.865Z,18.2
2018-04-11T12:38:59.168Z,18.2
2018-04-11T12:39:57.618Z,18.19
2018-04-11T12:40:57.629Z,18.2
2018-04-11T12:41:57.871Z,18.2
2018-04-11T12:42:57.876Z,18.25
2018-04-11T12:43:57.623Z,18.25
2018-04-11T12:44:57.634Z,18.55
2018-04-11T12:45:57.874Z,18.63
2018-04-11T12:46:57.626Z,18.53
2018-04-11T12:47:57.639Z,18.63
2018-04-11T12:48:57.880Z,18.52
2018-04-11T12:49:57.630Z,18.52
2018-04-11T12:50:57.888Z,18.53
2018-04-11T12:51:57.884Z,18.68
2018-04-11T12:52:57.635Z,18.62
2018-04-11T12:53:57.883Z,18.74
2018-04-11T12:54:57.885Z,18.55
2018-04-11T12:55:57.636Z,18.43
2018-04-11T12:56:57.898Z,18.49
2018-04-11T12:57:57.902Z,18.65
2018-04-11T12:58:57.668Z,18.66
2018-04-11T12:59:57.911Z,18.75
2018-04-11T13:00:57.648Z,18.84
2018-04-11T13:01:57.909Z,18.88
2018-04-11T13:02:57.901Z,19
2018-04-11T13:03:57.398Z,19.12
2018-04-11T13:04:57.908Z,19.19
2018-04-11T13:05:57.918Z,19.26
2018-04-11T13:06:57.660Z,19.21
2018-04-11T13:07:57.919Z,19.37
2018-04-11T13:08:57.908Z,19.36
2018-04-11T13:09:57.673Z,19.27
2018-04-11T13:10:57.930Z,19.29
2018-04-11T13:11:57.932Z,19.24
2018-04-11T13:12:57.670Z,19.27
2018-04-11T13:13:57.956Z,19.34
2018-04-11T13:14:57.924Z,19.39
2018-04-11T13:15:57.471Z,19.44
2018-04-11T13:16:57.967Z,19.49
2018-04-11T13:17:57.674Z,19.51
2018-04-11T13:18:57.923Z,19.47
2018-04-11T13:19:57.939Z,19.47
2018-04-11T13:20:57.682Z,19.44
2018-04-11T13:21:57.682Z,19.45
2018-04-11T13:22:57.685Z,19.41
2018-04-11T13:23:57.436Z,19.33
2018-04-11T13:24:58.008Z,19.4
2018-04-11T13:25:57.696Z,19.49
2018-04-11T13:26:57.950Z,19.47
2018-04-11T13:27:57.952Z,19.44
2018-04-11T13:28:57.957Z,19.3
2018-04-11T13:29:57.702Z,19.3
2018-04-11T13:30:57.953Z,19.34
2018-04-11T13:31:57.454Z,19.36
2018-04-11T13:32:57.951Z,19.33
2018-04-11T13:33:57.966Z,19.26
2018-04-11T13:34:57.952Z,19.33
2018-04-11T13:35:57.956Z,19.37
2018-04-11T13:36:57.709Z,19.39
2018-04-11T13:37:57.955Z,19.4
2018-04-11T13:38:57.725Z,19.51
2018-04-11T13:39:59.097Z,19.45
2018-04-11T13:40:58.020Z,19.63
2018-04-11T13:41:57.720Z,19.55
2018-04-11T13:42:57.986Z,19.47
2018-04-11T13:43:57.722Z,19.47
2018-04-11T13:44:57.819Z,19.45
2018-04-11T13:45:57.987Z,19.44
2018-04-11T13:46:57.739Z,19.45
2018-04-11T13:47:57.987Z,19.33
2018-04-11T13:48:57.984Z,19.31
2018-04-11T13:49:58.002Z,19.34
2018-04-11T13:50:57.998Z,19.34